createdAt,value
2018-11-03T00:02:22.033Z,7.10
2018-11-03T00:04:52.513Z,10.13
2018-11-03T00:07:21.498Z,10.20
2018-11-03T00:09:50.364Z,8.20
2018-11-03T00:12:19.566Z,8.20
2018-11-03T00:14:49.202Z,9.43
2018-11-03T00:17:19.749Z,7.63
2018-11-03T00:19:50.022Z,10.30
2018-11-03T00:22:18.895Z,8.03
2018-11-03T00:24:47.691Z,9.47
2018-11-03T00:27:17.540Z,7.67
2018-11-03T00:29:46.440Z,10.77
2018-11-03T00:32:15.419Z,8.43
2018-11-03T00:34:45.962Z,10.17
2018-11-03T00:37:15.274Z,9.87
2018-11-03T00:39:44.382Z,8.83
2018-11-03T00:42:13.234Z,8.33
2018-11-03T00:44:42.620Z,9.50
2018-11-03T00:47:12.382Z,8.10
2018-11-03T00:49:41.190Z,8.87
2018-11-03T00:52:10.962Z,8.97
2018-11-03T00:54:39.859Z,11.47
2018-11-03T00:57:08.750Z,8.83
2018-11-03T00:59:37.718Z,9.77
2018-11-03T01:02:07.043Z,8.80
2018-11-03T01:04:36.042Z,8.83
2018-11-03T01:07:08.552Z,11.00
2018-11-03T01:09:37.370Z,9.33
2018-11-03T01:12:06.511Z,8.83
2018-11-03T01:14:36.179Z,9.73
2018-11-03T01:17:05.224Z,12.30
2018-11-03T01:19:35.816Z,9.50
2018-11-03T01:22:04.802Z,11.50
2018-11-03T01:24:33.674Z,10.93
2018-11-03T01:27:02.899Z,11.00
2018-11-03T01:29:32.542Z,12.40
2018-11-03T01:32:01.395Z,10.00
2018-11-03T01:34:30.214Z,11.07
2018-11-03T01:36:59.123Z,12.40
2018-11-03T01:39:27.974Z,12.13
2018-11-03T01:41:58.029Z,10.63
2018-11-03T01:44:27.550Z,12.40
2018-11-03T01:46:56.439Z,11.37
2018-11-03T01:49:25.246Z,12.07
2018-11-03T01:51:54.090Z,11.43
2018-11-03T01:54:24.576Z,10.57
2018-11-03T01:56:53.422Z,13.40
2018-11-03T01:59:23.640Z,13.07
2018-11-03T02:01:54.093Z,10.80
2018-11-03T02:04:24.933Z,11.83
2018-11-03T02:06:54.059Z,11.60
2018-11-03T02:09:25.887Z,12.63
2018-11-03T02:11:54.764Z,15.43
2018-11-03T02:14:23.670Z,11.90
2018-11-03T02:16:52.831Z,14.23
2018-11-03T02:19:22.369Z,12.67
2018-11-03T02:21:51.287Z,13.80
2018-11-03T02:24:20.129Z,13.67
2018-11-03T02:26:49.298Z,15.47
2018-11-03T02:29:18.174Z,14.43
2018-11-03T02:31:47.075Z,13.87
2018-11-03T02:34:15.987Z,13.17
2018-11-03T02:36:44.834Z,15.47
2018-11-03T02:39:13.673Z,14.57
2018-11-03T02:41:42.819Z,15.23
2018-11-03T02:44:11.775Z,15.73
2018-11-03T02:46:40.646Z,14.57
2018-11-03T02:49:09.496Z,14.07
2018-11-03T02:51:38.292Z,15.50
2018-11-03T02:54:08.211Z,15.77
2018-11-03T02:56:37.091Z,13.87
2018-11-03T02:59:06.443Z,15.30
2018-11-03T03:01:35.264Z,15.63
2018-11-03T03:04:04.189Z,14.50
2018-11-03T03:06:33.389Z,16.63
2018-11-03T03:09:02.247Z,16.73
2018-11-03T03:11:31.141Z,18.27
2018-11-03T03:14:00.423Z,17.67
2018-11-03T03:16:29.234Z,18.50
2018-11-03T03:18:58.039Z,14.67
2018-11-03T03:21:27.372Z,14.43
2018-11-03T03:23:56.210Z,15.00
2018-11-03T03:26:28.822Z,19.80
2018-11-03T03:28:57.777Z,19.97
2018-11-03T03:31:26.662Z,19.53
2018-11-03T03:33:57.186Z,19.87
2018-11-03T03:36:26.793Z,18.13
2018-11-03T03:38:55.643Z,17.27
2018-11-03T03:41:24.640Z,18.67
2018-11-03T03:43:53.848Z,17.77
2018-11-03T03:46:22.659Z,16.93
2018-11-03T03:48:51.538Z,20.03
2018-11-03T03:51:20.796Z,16.90
2018-11-03T03:53:49.738Z,23.83
2018-11-03T03:56:18.579Z,17.80
2018-11-03T03:58:47.400Z,18.57
2018-11-03T04:01:16.753Z,18.57
2018-11-03T04:03:47.192Z,20.83
2018-11-03T04:06:16.054Z,16.93
2018-11-03T04:08:44.936Z,17.37
2018-11-03T04:11:15.458Z,18.10
2018-11-03T04:13:44.338Z,16.40
2018-11-03T04:16:13.196Z,17.43
2018-11-03T04:18:42.051Z,17.60
2018-11-03T04:21:14.626Z,19.53
2018-11-03T04:23:43.512Z,19.70
2018-11-03T04:26:12.399Z,17.00
2018-11-03T04:28:43.279Z,20.07
2018-11-03T04:31:12.181Z,18.50
2018-11-03T04:33:46.090Z,19.67
2018-11-03T04:36:15.666Z,18.47
2018-11-03T04:38:44.599Z,17.40
2018-11-03T04:41:15.584Z,17.47
2018-11-03T04:43:44.827Z,16.87
2018-11-03T04:46:13.664Z,17.63
2018-11-03T04:48:42.842Z,21.47
2018-11-03T04:51:12.171Z,18.60
2018-11-03T04:53:41.010Z,21.83
2018-11-03T04:56:09.794Z,20.33
2018-11-03T04:58:38.663Z,17.77
2018-11-03T05:01:07.487Z,20.53
2018-11-03T05:03:36.436Z,21.13
2018-11-03T05:06:05.362Z,19.70
2018-11-03T05:08:34.242Z,22.27
2018-11-03T05:11:03.082Z,20.70
2018-11-03T05:13:31.898Z,20.83
2018-11-03T05:16:00.819Z,22.03
2018-11-03T05:18:30.271Z,19.57
2018-11-03T05:20:59.521Z,18.70
2018-11-03T05:23:29.157Z,20.57
2018-11-03T05:26:00.867Z,19.10
2018-11-03T05:28:30.771Z,22.07
2018-11-03T05:31:00.143Z,21.07
2018-11-03T05:33:28.978Z,22.90
2018-11-03T05:35:57.849Z,18.60
2018-11-03T05:38:27.598Z,19.53
2018-11-03T05:40:56.496Z,25.33
2018-11-03T05:43:25.379Z,27.23
2018-11-03T05:45:54.640Z,26.77
2018-11-03T05:48:23.535Z,25.73
2018-11-03T05:50:52.406Z,27.47
2018-11-03T05:53:21.279Z,26.13
2018-11-03T05:55:50.466Z,25.00
2018-11-03T05:58:19.332Z,28.03
2018-11-03T06:00:48.200Z,31.23
2018-11-03T06:03:17.659Z,32.80
2018-11-03T06:05:46.818Z,29.63
2018-11-03T06:08:15.671Z,29.20
2018-11-03T06:10:46.383Z,32.63
2018-11-03T06:13:17.916Z,35.43
2018-11-03T06:15:47.262Z,32.77
2018-11-03T06:18:16.146Z,32.70
2018-11-03T06:20:53.491Z,30.43
2018-11-03T06:23:28.323Z,34.07
2018-11-03T06:25:57.548Z,31.23
2018-11-03T06:28:26.665Z,29.90
2018-11-03T06:30:56.229Z,35.67
2018-11-03T06:33:25.232Z,30.83
2018-11-03T06:35:54.244Z,30.70
2018-11-03T06:38:23.706Z,35.73
2018-11-03T06:40:52.594Z,31.37
2018-11-03T06:43:21.491Z,35.10
2018-11-03T06:45:52.451Z,37.30
2018-11-03T06:48:21.309Z,36.57
2018-11-03T06:50:51.942Z,34.73
2018-11-03T06:53:21.221Z,33.47
2018-11-03T06:55:51.013Z,35.83
2018-11-03T06:58:19.880Z,34.83
2018-11-03T07:00:48.785Z,33.20
2018-11-03T07:03:18.083Z,39.60
2018-11-03T07:05:47.070Z,35.00
2018-11-03T07:08:15.982Z,32.80
2018-11-03T07:10:46.459Z,31.00
2018-11-03T07:13:15.464Z,31.87
2018-11-03T07:15:45.994Z,31.53
2018-11-03T07:18:15.315Z,34.53
2018-11-03T07:20:44.192Z,40.00
2018-11-03T07:23:13.709Z,36.07
2018-11-03T07:25:43.433Z,36.63
2018-11-03T07:28:13.499Z,36.70
2018-11-03T07:30:42.459Z,38.03
2018-11-03T07:33:15.717Z,36.63
2018-11-03T07:35:50.799Z,36.90
2018-11-03T07:38:21.522Z,40.60
2018-11-03T07:40:50.779Z,34.20
2018-11-03T07:43:23.308Z,40.43
2018-11-03T07:46:00.331Z,37.67
2018-11-03T07:48:34.339Z,36.13
2018-11-03T07:51:03.622Z,37.37
2018-11-03T07:53:32.742Z,37.70
2018-11-03T07:56:01.626Z,38.53
2018-11-03T07:58:31.441Z,35.33
2018-11-03T08:01:00.277Z,36.30
2018-11-03T08:03:30.443Z,35.73
2018-11-03T08:06:01.539Z,34.57
2018-11-03T08:08:31.180Z,36.43
2018-11-03T08:11:00.119Z,40.93
2018-11-03T08:13:33.209Z,42.50
2018-11-03T08:16:02.071Z,34.00
2018-11-03T08:18:31.324Z,38.27
2018-11-03T08:21:03.790Z,41.37
2018-11-03T08:23:33.536Z,36.90
2018-11-03T08:26:03.180Z,39.77
2018-11-03T08:28:32.088Z,37.10
2018-11-03T08:31:01.262Z,42.20
2018-11-03T08:33:36.378Z,41.43
2018-11-03T08:36:05.299Z,40.33
2018-11-03T08:38:35.359Z,40.23
2018-11-03T08:41:06.473Z,38.60
2018-11-03T08:43:35.958Z,40.47
2018-11-03T08:46:11.777Z,42.00
2018-11-03T08:48:43.402Z,42.17
2018-11-03T08:51:13.640Z,40.63
2018-11-03T08:53:50.459Z,43.47
2018-11-03T08:56:23.057Z,41.63
2018-11-03T08:58:51.861Z,42.73
2018-11-03T09:01:25.550Z,41.63
2018-11-03T09:03:57.912Z,41.03
2018-11-03T09:06:45.706Z,43.37
2018-11-03T09:09:16.847Z,35.87
2018-11-03T09:11:45.888Z,45.47
2018-11-03T09:14:17.453Z,37.00
2018-11-03T09:16:47.002Z,41.27
2018-11-03T09:19:17.046Z,39.97
2018-11-03T09:21:48.418Z,40.00
2018-11-03T09:24:18.640Z,39.43
2018-11-03T09:26:48.314Z,36.97
2018-11-03T09:29:17.627Z,39.33
2018-11-03T09:31:50.313Z,42.07
2018-11-03T09:34:25.083Z,36.53
2018-11-03T09:36:53.933Z,38.80
2018-11-03T09:39:25.454Z,41.07
2018-11-03T09:41:54.370Z,41.37
2018-11-03T09:44:24.476Z,45.13
2018-11-03T09:46:55.077Z,43.40
2018-11-03T09:49:26.777Z,41.17
2018-11-03T09:51:55.736Z,43.67
2018-11-03T09:54:26.152Z,43.90
2018-11-03T09:56:55.699Z,48.67
2018-11-03T09:59:28.416Z,39.70
2018-11-03T10:01:57.784Z,44.40
2018-11-03T10:04:26.606Z,39.90
2018-11-03T10:06:56.491Z,42.07
2018-11-03T10:09:25.882Z,40.73
2018-11-03T10:11:54.764Z,43.53
2018-11-03T10:14:24.429Z,42.77
2018-11-03T10:16:54.734Z,39.67
2018-11-03T10:19:24.033Z,45.20
2018-11-03T10:21:55.223Z,42.50
2018-11-03T10:24:32.398Z,44.50
2018-11-03T10:27:06.497Z,44.27
2018-11-03T10:29:44.376Z,36.70
2018-11-03T10:32:14.365Z,38.77
2018-11-03T10:34:45.283Z,39.73
2018-11-03T10:37:17.247Z,47.70
2018-11-03T10:39:50.296Z,39.30
2018-11-03T10:42:21.542Z,39.50
2018-11-03T10:44:54.394Z,41.20
2018-11-03T10:47:26.322Z,41.00
2018-11-03T10:49:56.029Z,39.03
2018-11-03T10:52:26.365Z,38.23
2018-11-03T10:54:59.350Z,39.17
2018-11-03T10:57:28.682Z,43.17
2018-11-03T10:59:59.244Z,41.97
2018-11-03T11:02:33.166Z,37.90
2018-11-03T11:05:07.185Z,43.93
2018-11-03T11:07:42.275Z,40.77
2018-11-03T11:10:17.558Z,39.93
2018-11-03T11:12:48.921Z,44.13
2018-11-03T11:15:18.379Z,40.57
2018-11-03T11:17:49.040Z,41.57
2018-11-03T11:20:19.405Z,40.23
2018-11-03T11:22:49.622Z,40.33
2018-11-03T11:25:21.170Z,39.97
2018-11-03T11:27:49.926Z,38.87
2018-11-03T11:30:19.539Z,42.20
2018-11-03T11:32:49.807Z,38.27
2018-11-03T11:35:19.400Z,37.47
2018-11-03T11:37:48.191Z,40.93
2018-11-03T11:40:17.044Z,42.43
2018-11-03T11:42:45.887Z,42.37
2018-11-03T11:45:14.678Z,38.47
2018-11-03T11:47:44.830Z,40.63
2018-11-03T11:50:14.504Z,41.27
2018-11-03T11:52:49.065Z,38.63
2018-11-03T11:55:19.215Z,39.03
2018-11-03T11:57:49.197Z,38.53
2018-11-03T12:00:19.053Z,35.93
2018-11-03T12:02:47.934Z,39.57
2018-11-03T12:05:19.944Z,37.93
2018-11-03T12:07:49.382Z,39.70
2018-11-03T12:10:22.823Z,37.83
2018-11-03T12:12:53.521Z,40.63
2018-11-03T12:15:24.744Z,40.47
2018-11-03T12:17:55.399Z,38.03
2018-11-03T12:20:29.063Z,36.97
2018-11-03T12:22:59.367Z,36.90
2018-11-03T12:25:30.398Z,39.50
2018-11-03T12:28:02.538Z,40.30
2018-11-03T12:30:33.476Z,38.87
2018-11-03T12:33:04.303Z,37.97
2018-11-03T12:35:33.922Z,37.53
2018-11-03T12:38:08.474Z,38.80
2018-11-03T12:40:38.865Z,41.93
2018-11-03T12:43:08.214Z,38.73
2018-11-03T12:49:30.665Z,37.63
2018-11-03T12:52:02.333Z,38.33
2018-11-03T12:54:32.685Z,40.87
2018-11-03T12:57:04.043Z,38.40
2018-11-03T12:59:34.247Z,38.53
2018-11-03T13:02:04.425Z,43.97
2018-11-03T13:08:06.334Z,43.10
2018-11-03T13:10:36.460Z,40.50
2018-11-03T13:13:07.366Z,42.83
2018-11-03T13:15:37.089Z,40.07
2018-11-03T13:18:06.422Z,42.30
2018-11-03T13:20:35.291Z,40.77
2018-11-03T13:23:06.403Z,41.73
2018-11-03T13:25:36.850Z,40.87
2018-11-03T13:28:07.453Z,41.27
2018-11-03T13:30:36.397Z,44.70
2018-11-03T13:33:06.281Z,44.00
2018-11-03T13:35:37.376Z,40.50
2018-11-03T13:38:07.186Z,40.13
2018-11-03T13:40:37.948Z,46.60
2018-11-03T13:43:09.491Z,43.20
2018-11-03T13:45:41.478Z,42.50
2018-11-03T13:48:13.663Z,48.60
2018-11-03T13:50:43.452Z,40.20
2018-11-03T13:53:12.314Z,43.97
2018-11-03T13:55:41.165Z,42.40
2018-11-03T13:58:13.131Z,42.00
2018-11-03T14:00:44.172Z,43.57
2018-11-03T14:03:14.836Z,46.07
2018-11-03T14:05:45.253Z,45.07
2018-11-03T14:08:18.267Z,45.83
2018-11-03T14:11:17.837Z,46.53
2018-11-03T14:13:53.474Z,43.30
2018-11-03T14:16:22.373Z,42.00
2018-11-03T14:18:52.390Z,44.30
2018-11-03T14:21:21.385Z,42.77
2018-11-03T14:23:50.331Z,46.47
2018-11-03T14:26:19.453Z,47.67
2018-11-03T14:28:54.536Z,47.07
2018-11-03T14:31:24.759Z,49.47
2018-11-03T14:33:54.387Z,46.70
2018-11-03T14:36:24.138Z,47.83
2018-11-03T14:38:53.006Z,46.00
2018-11-03T14:41:22.206Z,48.70
2018-11-03T14:43:51.794Z,44.80
2018-11-03T14:46:22.706Z,48.13
2018-11-03T14:48:54.381Z,48.13
2018-11-03T14:51:24.054Z,45.07
2018-11-03T14:53:52.898Z,46.47
2018-11-03T14:56:21.741Z,43.17
2018-11-03T14:58:54.823Z,46.87
2018-11-03T15:01:25.366Z,46.57
2018-11-03T15:03:55.475Z,43.70
2018-11-03T15:06:24.363Z,43.70
2018-11-03T15:08:53.199Z,47.83
2018-11-03T15:11:25.021Z,50.03
2018-11-03T15:13:54.764Z,46.37
2018-11-03T15:16:23.401Z,43.80
2018-11-03T15:18:53.169Z,44.33
2018-11-03T15:21:22.042Z,44.67
2018-11-03T15:23:52.166Z,44.80
2018-11-03T15:26:21.030Z,46.60
2018-11-03T15:28:50.310Z,44.47
2018-11-03T15:31:19.138Z,46.93
2018-11-03T15:33:52.350Z,44.20
2018-11-03T15:36:23.785Z,46.10
2018-11-03T15:38:53.423Z,42.03
2018-11-03T15:41:24.759Z,41.13
2018-11-03T15:43:55.584Z,44.60
2018-11-03T15:46:26.689Z,49.00
2018-11-03T15:48:56.607Z,39.60
2018-11-03T15:51:26.211Z,44.20
2018-11-03T15:59:17.338Z,48.97
2018-11-03T16:01:47.151Z,45.77
2018-11-03T16:04:17.662Z,48.90
2018-11-03T16:06:46.526Z,84.03
2018-11-03T16:09:17.906Z,47.43
2018-11-03T16:11:48.000Z,46.37
2018-11-03T16:14:18.072Z,48.27
2018-11-03T16:16:47.413Z,46.17
2018-11-03T16:19:16.279Z,46.00
2018-11-03T16:21:45.782Z,52.47
2018-11-03T16:24:14.684Z,50.77
2018-11-03T16:26:44.310Z,54.93
2018-11-03T16:29:14.714Z,53.50
2018-11-03T16:31:44.274Z,56.97
2018-11-03T16:34:14.663Z,53.27
2018-11-03T16:36:45.342Z,53.57
2018-11-03T16:39:14.503Z,51.43
2018-11-03T16:41:47.287Z,50.73
2018-11-03T16:44:17.797Z,55.37
2018-11-03T16:46:48.803Z,52.97
2018-11-03T16:49:24.367Z,52.03
2018-11-03T16:51:55.223Z,51.93
2018-11-03T16:54:30.476Z,52.37
2018-11-03T16:56:59.467Z,47.43
2018-11-03T16:59:29.940Z,44.80
2018-11-03T17:01:59.300Z,49.23
2018-11-03T17:04:28.875Z,44.83
2018-11-03T17:06:59.505Z,45.77
2018-11-03T17:09:28.995Z,44.47
2018-11-03T17:11:57.942Z,44.63
2018-11-03T17:14:26.851Z,45.93
2018-11-03T17:16:55.991Z,47.13
2018-11-03T17:19:24.850Z,50.67
2018-11-03T17:21:53.722Z,47.10
2018-11-03T17:24:24.539Z,46.90
2018-11-03T17:26:57.078Z,60.87
2018-11-03T17:29:26.918Z,60.83
2018-11-03T17:31:57.865Z,54.47
2018-11-03T17:34:29.616Z,50.43
2018-11-03T17:36:59.319Z,46.37
2018-11-03T17:39:29.423Z,48.67
2018-11-03T17:41:59.679Z,45.37
2018-11-03T17:44:36.294Z,53.53
2018-11-03T17:47:07.490Z,49.93
2018-11-03T17:49:40.164Z,55.73
2018-11-03T17:52:13.008Z,46.57
2018-11-03T17:54:42.493Z,47.70
2018-11-03T17:57:18.839Z,45.37
2018-11-03T17:59:47.838Z,43.10
2018-11-03T18:02:18.773Z,51.00
2018-11-03T18:04:49.475Z,55.70
2018-11-03T18:07:21.306Z,49.87
2018-11-03T18:09:54.403Z,45.67
2018-11-03T18:12:27.099Z,43.60
2018-11-03T18:14:57.151Z,47.10
2018-11-03T18:17:29.218Z,50.07
2018-11-03T18:20:05.338Z,46.53
2018-11-03T18:22:39.075Z,48.70
2018-11-03T18:25:14.319Z,47.23
2018-11-03T18:27:46.433Z,49.60
2018-11-03T18:30:21.663Z,47.47
2018-11-03T18:32:54.754Z,48.73
2018-11-03T18:35:29.364Z,43.70
2018-11-03T18:38:00.290Z,48.57
2018-11-03T18:40:32.414Z,48.67
2018-11-03T18:45:49.350Z,47.27
2018-11-03T18:48:18.945Z,53.33
2018-11-03T18:50:52.547Z,47.83
2018-11-03T18:53:22.383Z,44.03
2018-11-03T18:55:54.667Z,47.33
2018-11-03T18:58:26.948Z,48.60
2018-11-03T19:00:57.334Z,46.53
2018-11-03T19:03:26.515Z,48.13
2018-11-03T19:05:56.809Z,49.40
2018-11-03T19:08:26.631Z,46.40
2018-11-03T19:10:58.711Z,45.90
2018-11-03T19:13:27.560Z,47.40
2018-11-03T19:15:57.185Z,47.73
2018-11-03T19:18:26.063Z,44.37
2018-11-03T19:20:55.303Z,48.43
2018-11-03T19:30:21.317Z,51.27
2018-11-03T19:32:51.810Z,46.97
2018-11-03T19:35:27.106Z,49.50
2018-11-03T19:37:57.766Z,57.23
2018-11-03T19:40:50.820Z,50.43
2018-11-03T19:43:21.352Z,49.47
2018-11-03T19:45:50.411Z,54.80
2018-11-03T19:48:22.299Z,51.00
2018-11-03T19:50:51.733Z,51.63
2018-11-03T19:53:23.779Z,50.80
2018-11-03T19:56:01.236Z,50.53
2018-11-03T19:58:32.115Z,51.20
2018-11-03T20:01:03.704Z,53.83
2018-11-03T20:03:36.433Z,50.20
2018-11-03T20:06:05.330Z,54.47
2018-11-03T20:08:40.318Z,50.70
2018-11-03T20:11:11.970Z,50.23
2018-11-03T20:13:45.080Z,53.87
2018-11-03T20:16:14.842Z,55.37
2018-11-03T20:18:50.094Z,52.87
2018-11-03T20:21:20.436Z,51.13
2018-11-03T20:23:50.007Z,51.23
2018-11-03T20:26:21.866Z,50.40
2018-11-03T20:28:50.706Z,52.10
2018-11-03T20:31:26.116Z,53.03
2018-11-03T20:33:59.309Z,48.30
2018-11-03T20:36:30.120Z,51.57
2018-11-03T20:39:01.443Z,50.63
2018-11-03T20:41:32.020Z,58.90
2018-11-03T20:44:02.087Z,48.17
2018-11-03T20:46:30.880Z,53.83
2018-11-03T20:49:04.442Z,49.73
2018-11-03T20:51:37.418Z,47.93
2018-11-03T20:54:08.468Z,52.57
2018-11-03T20:56:38.503Z,48.07
2018-11-03T20:59:07.407Z,50.17
2018-11-03T21:01:38.152Z,53.23
2018-11-03T21:04:07.555Z,47.83
2018-11-03T21:06:38.220Z,50.77
2018-11-03T21:09:10.056Z,54.47
2018-11-03T21:11:47.486Z,44.57
2018-11-03T21:14:21.666Z,46.50
2018-11-03T21:16:52.184Z,50.70
2018-11-03T21:19:22.336Z,51.50
2018-11-03T21:21:56.518Z,46.63
2018-11-03T21:24:25.442Z,46.70
2018-11-03T21:26:56.206Z,54.83
2018-11-03T21:29:25.398Z,48.43
2018-11-03T21:31:55.546Z,50.93
2018-11-03T21:34:25.718Z,49.77
2018-11-03T21:37:08.885Z,52.50
2018-11-03T21:39:39.680Z,45.83
2018-11-03T21:42:09.534Z,50.93
2018-11-03T21:44:41.365Z,52.47
2018-11-03T21:47:14.126Z,52.83
2018-11-03T21:49:46.641Z,53.43
2018-11-03T21:52:30.412Z,49.93
2018-11-03T21:55:00.343Z,64.47
2018-11-03T21:57:31.298Z,49.17
2018-11-03T22:00:00.266Z,50.30
2018-11-03T22:02:30.441Z,51.43
2018-11-03T22:05:02.942Z,49.20
2018-11-03T22:07:34.424Z,50.63
2018-11-03T22:10:08.458Z,53.23
2018-11-03T22:12:40.052Z,52.40
2018-11-03T22:15:12.363Z,54.27
2018-11-03T22:17:43.150Z,53.60
2018-11-03T22:20:15.510Z,57.43
2018-11-03T22:22:47.975Z,52.37
2018-11-03T22:25:18.191Z,55.47
2018-11-03T22:27:47.124Z,61.43
2018-11-03T22:30:16.430Z,59.33
2018-11-03T22:32:47.371Z,59.87
2018-11-03T22:35:17.386Z,68.83
2018-11-03T22:37:46.527Z,65.37
2018-11-03T22:40:16.514Z,59.60
2018-11-03T22:42:46.591Z,66.47
2018-11-03T22:45:15.461Z,66.27
2018-11-03T22:47:44.462Z,61.90
2018-11-03T22:50:16.177Z,63.80
2018-11-03T22:52:46.142Z,64.37
2018-11-03T22:55:16.350Z,104.70
2018-11-03T22:57:45.998Z,94.93
2018-11-03T23:00:15.280Z,62.90
2018-11-03T23:02:48.649Z,66.77
2018-11-03T23:05:25.431Z,91.67
2018-11-03T23:07:55.592Z,125.70
2018-11-03T23:10:24.878Z,86.33
2018-11-03T23:12:55.970Z,59.70
2018-11-03T23:15:41.268Z,76.37
2018-11-03T23:18:11.935Z,85.00
2018-11-03T23:20:43.283Z,128.13
2018-11-03T23:23:14.235Z,74.80
2018-11-03T23:25:47.703Z,69.10
2018-11-03T23:28:17.413Z,97.90
2018-11-03T23:33:31.894Z,64.07
2018-11-03T23:36:09.572Z,284.30
2018-11-03T23:38:50.257Z,71.37
2018-11-03T23:41:19.784Z,170.97
2018-11-03T23:43:56.686Z,69.23
2018-11-03T23:46:32.220Z,110.37
2018-11-03T23:49:03.848Z,68.90
2018-11-03T23:51:34.335Z,65.97
2018-11-03T23:54:04.134Z,73.30
2018-11-03T23:56:34.188Z,64.53
2018-11-03T23:59:03.304Z,99.20
